createdAt,value
2023-02-11T00:00:19.577Z,11.10
2023-02-11T00:02:48.030Z,11.10
2023-02-11T00:05:15.304Z,11.10
2023-02-11T00:07:42.080Z,11.00
2023-02-11T00:10:09.370Z,11.00
2023-02-11T00:12:38.129Z,11.00
2023-02-11T00:15:07.651Z,11.10
2023-02-11T00:17:34.624Z,11.10
2023-02-11T00:20:01.450Z,11.10
2023-02-11T00:22:28.224Z,11.10
2023-02-11T00:24:57.021Z,11.20
2023-02-11T00:27:23.796Z,11.20
2023-02-11T00:29:51.594Z,11.20
2023-02-11T00:32:18.387Z,11.10
2023-02-11T00:34:45.101Z,11.10
2023-02-11T00:37:12.119Z,11.10
2023-02-11T00:39:41.921Z,11.00
2023-02-11T00:42:16.962Z,11.00
2023-02-11T00:44:45.221Z,11.00
2023-02-11T00:47:12.074Z,11.00
2023-02-11T00:49:40.311Z,11.10
2023-02-11T00:52:07.523Z,11.10
2023-02-11T00:54:34.887Z,11.10
2023-02-11T00:57:01.642Z,11.10
2023-02-11T00:59:28.686Z,11.10
2023-02-11T01:01:55.805Z,11.10
2023-02-11T01:04:22.838Z,11.10
2023-02-11T01:06:52.136Z,11.10
2023-02-11T01:09:21.097Z,11.10
2023-02-11T01:11:48.343Z,11.10
2023-02-11T01:14:16.073Z,11.10
2023-02-11T01:16:43.364Z,11.10
2023-02-11T01:19:10.573Z,11.10
2023-02-11T01:21:37.325Z,11.10
2023-02-11T01:24:04.242Z,11.10
2023-02-11T01:26:30.990Z,11.10
2023-02-11T01:29:00.719Z,11.10
2023-02-11T01:31:27.903Z,11.10
2023-02-11T01:33:54.653Z,11.10
2023-02-11T01:36:21.361Z,11.10
2023-02-11T01:38:49.855Z,11.10
2023-02-11T01:41:16.768Z,11.00
2023-02-11T01:43:46.478Z,11.00
2023-02-11T01:46:28.309Z,11.00
2023-02-11T01:49:04.597Z,11.00
2023-02-11T01:51:39.776Z,11.00
2023-02-11T01:54:27.384Z,11.00
2023-02-11T01:57:16.272Z,11.00
2023-02-11T02:00:05.288Z,11.00
2023-02-11T02:03:07.829Z,10.90
2023-02-11T02:05:59.657Z,10.80
2023-02-11T02:08:35.526Z,10.70
2023-02-11T02:11:03.680Z,10.60
2023-02-11T02:13:33.216Z,10.60
2023-02-11T02:16:11.532Z,10.60
2023-02-11T02:19:03.907Z,10.60
2023-02-11T02:22:18.180Z,10.50
2023-02-11T02:25:00.889Z,10.50
2023-02-11T02:27:46.876Z,10.60
2023-02-11T02:30:26.121Z,10.70
2023-02-11T02:32:57.921Z,10.70
2023-02-11T02:36:09.447Z,10.70
2023-02-11T02:38:55.541Z,10.70
2023-02-11T02:41:32.416Z,10.60
2023-02-11T02:43:59.359Z,10.50
2023-02-11T02:46:30.053Z,10.40
2023-02-11T02:48:57.761Z,10.40
2023-02-11T02:51:47.795Z,10.30
2023-02-11T02:54:45.698Z,10.20
2023-02-11T02:57:36.336Z,10.30
2023-02-11T03:00:29.738Z,10.30
2023-02-11T03:03:26.073Z,10.40
2023-02-11T03:06:21.057Z,10.40
2023-02-11T03:09:11.834Z,10.50
2023-02-11T03:11:39.914Z,10.50
2023-02-11T03:14:10.408Z,10.50
2023-02-11T03:16:39.238Z,10.40
2023-02-11T03:19:12.553Z,10.40
2023-02-11T03:21:41.615Z,10.40
2023-02-11T03:24:14.527Z,10.40
2023-02-11T03:26:49.048Z,10.40
2023-02-11T03:29:26.182Z,10.30
2023-02-11T03:32:17.646Z,10.30
2023-02-11T03:35:06.486Z,10.30
2023-02-11T03:37:36.240Z,10.30
2023-02-11T03:40:18.942Z,10.30
2023-02-11T03:42:53.380Z,10.30
2023-02-11T03:45:23.328Z,10.30
2023-02-11T03:47:59.950Z,10.30
2023-02-11T03:50:27.953Z,10.20
2023-02-11T03:52:57.160Z,10.30
2023-02-11T03:55:26.018Z,10.30
2023-02-11T03:57:52.781Z,10.20
2023-02-11T04:00:19.557Z,10.20
2023-02-11T04:02:46.426Z,10.20
2023-02-11T04:05:16.171Z,10.30
2023-02-11T04:07:42.980Z,10.20
2023-02-11T04:10:11.393Z,10.20
2023-02-11T04:12:38.254Z,10.20
2023-02-11T04:15:05.668Z,10.10
2023-02-11T04:17:32.361Z,10.20
2023-02-11T04:19:59.131Z,10.20
2023-02-11T04:22:25.933Z,10.20
2023-02-11T04:24:52.663Z,10.30
2023-02-11T04:27:19.442Z,10.30
2023-02-11T04:29:46.184Z,10.40
2023-02-11T04:32:13.147Z,10.40
2023-02-11T04:34:40.029Z,10.40
2023-02-11T04:37:07.268Z,10.40
2023-02-11T04:39:34.646Z,10.50
2023-02-11T04:42:01.522Z,10.50
2023-02-11T04:44:28.483Z,10.50
2023-02-11T04:46:55.169Z,10.50
2023-02-11T04:49:22.059Z,10.60
2023-02-11T04:51:49.637Z,10.50
2023-02-11T04:54:16.874Z,10.50
2023-02-11T04:56:43.835Z,10.50
2023-02-11T04:59:11.477Z,10.60
2023-02-11T05:01:38.285Z,10.50
2023-02-11T05:04:05.204Z,10.50
2023-02-11T05:06:32.166Z,10.50
2023-02-11T05:08:58.906Z,10.60
2023-02-11T05:11:26.176Z,10.60
2023-02-11T05:13:53.421Z,10.60
2023-02-11T05:16:20.717Z,10.70
2023-02-11T05:18:47.630Z,10.70
2023-02-11T05:21:17.501Z,10.70
2023-02-11T05:23:45.294Z,10.80
2023-02-11T05:26:12.810Z,10.80
2023-02-11T05:28:40.286Z,10.70
2023-02-11T05:31:07.525Z,10.70
2023-02-11T05:33:34.481Z,10.70
2023-02-11T05:36:08.272Z,10.70
2023-02-11T05:38:35.814Z,10.70
2023-02-11T05:41:03.108Z,10.60
2023-02-11T05:43:29.885Z,10.60
2023-02-11T05:45:57.088Z,10.60
2023-02-11T05:48:24.092Z,10.70
2023-02-11T05:50:50.829Z,10.70
2023-02-11T05:53:17.690Z,10.60
2023-02-11T05:55:44.722Z,10.70
2023-02-11T05:58:11.498Z,10.70
2023-02-11T06:00:38.309Z,10.70
2023-02-11T06:03:05.612Z,10.80
2023-02-11T06:05:32.615Z,10.80
2023-02-11T06:07:59.721Z,10.70
2023-02-11T06:10:26.825Z,10.80
2023-02-11T06:12:53.585Z,10.80
2023-02-11T06:15:20.455Z,10.80
2023-02-11T06:17:47.209Z,10.80
2023-02-11T06:20:14.132Z,10.90
2023-02-11T06:22:40.970Z,10.90
2023-02-11T06:25:07.837Z,10.80
2023-02-11T06:27:34.553Z,10.90
2023-02-11T06:30:01.309Z,10.90
2023-02-11T06:32:43.870Z,10.90
2023-02-11T06:35:12.312Z,10.90
2023-02-11T06:37:39.926Z,10.90
2023-02-11T06:40:07.069Z,10.90
2023-02-11T06:42:34.566Z,11.00
2023-02-11T06:45:01.371Z,10.90
2023-02-11T06:47:28.185Z,10.90
2023-02-11T06:49:54.901Z,10.90
2023-02-11T06:52:21.721Z,11.00
2023-02-11T06:54:48.420Z,11.00
2023-02-11T06:57:15.150Z,11.00
2023-02-11T06:59:41.986Z,11.10
2023-02-11T07:02:11.847Z,11.10
2023-02-11T07:04:38.615Z,11.00
2023-02-11T07:07:05.392Z,11.10
2023-02-11T07:09:32.345Z,11.10
2023-02-11T07:11:59.068Z,11.10
2023-02-11T07:14:25.826Z,11.00
2023-02-11T07:16:52.634Z,11.00
2023-02-11T07:19:19.369Z,11.00
2023-02-11T07:21:46.103Z,11.00
2023-02-11T07:24:13.287Z,11.00
2023-02-11T07:26:40.339Z,11.00
2023-02-11T07:29:07.272Z,11.10
2023-02-11T07:31:34.171Z,11.10
2023-02-11T07:34:02.385Z,11.20
2023-02-11T07:36:31.751Z,11.20
2023-02-11T07:38:59.988Z,11.20
2023-02-11T07:41:27.273Z,11.30
2023-02-11T07:43:54.742Z,11.30
2023-02-11T07:46:24.364Z,11.30
2023-02-11T07:48:51.577Z,11.30
2023-02-11T07:51:27.379Z,11.30
2023-02-11T07:53:55.392Z,11.40
2023-02-11T07:56:22.990Z,11.40
2023-02-11T07:58:50.417Z,11.40
2023-02-11T08:01:24.908Z,11.40
2023-02-11T08:03:52.681Z,11.50
2023-02-11T08:06:21.321Z,11.50
2023-02-11T08:08:48.946Z,11.50
2023-02-11T08:11:22.513Z,11.60
2023-02-11T08:13:49.277Z,11.60
2023-02-11T08:16:22.213Z,11.70
2023-02-11T08:18:49.841Z,11.70
2023-02-11T08:21:17.411Z,11.70
2023-02-11T08:23:44.797Z,11.70
2023-02-11T08:26:17.507Z,11.80
2023-02-11T08:28:46.298Z,11.80
2023-02-11T08:31:16.029Z,11.80
2023-02-11T08:33:43.119Z,11.80
2023-02-11T08:36:15.730Z,11.70
2023-02-11T08:38:43.073Z,11.80
2023-02-11T08:41:09.881Z,11.80
2023-02-11T08:43:37.485Z,11.90
2023-02-11T08:46:05.649Z,11.90
2023-02-11T08:48:32.631Z,12.00
2023-02-11T08:50:59.901Z,11.90
2023-02-11T08:53:26.869Z,12.00
2023-02-11T08:55:55.368Z,12.00
2023-02-11T08:58:22.798Z,12.00
2023-02-11T09:00:50.395Z,12.00
2023-02-11T09:03:17.916Z,12.00
2023-02-11T09:05:46.981Z,12.10
2023-02-11T09:08:17.274Z,12.10
2023-02-11T09:10:44.185Z,12.20
2023-02-11T09:13:11.337Z,12.20
2023-02-11T09:15:38.085Z,12.20
2023-02-11T09:18:05.835Z,12.30
2023-02-11T09:20:32.680Z,12.40
2023-02-11T09:22:59.909Z,12.50
2023-02-11T09:25:26.851Z,12.60
2023-02-11T09:27:53.826Z,12.70
2023-02-11T09:30:20.966Z,12.70
2023-02-11T09:32:47.989Z,12.80
2023-02-11T09:35:14.789Z,12.80
2023-02-11T09:37:41.589Z,12.80
2023-02-11T09:40:09.139Z,12.80
2023-02-11T09:43:02.346Z,12.90
2023-02-11T09:45:31.739Z,12.90
2023-02-11T09:48:05.827Z,12.90
2023-02-11T09:50:36.643Z,12.90
2023-02-11T09:53:27.213Z,13.00
2023-02-11T09:56:00.952Z,13.10
2023-02-11T09:58:32.320Z,13.10
2023-02-11T10:01:13.781Z,13.20
2023-02-11T10:04:02.360Z,13.30
2023-02-11T10:06:36.631Z,13.40
2023-02-11T10:09:20.830Z,13.50
2023-02-11T10:12:25.458Z,13.50
2023-02-11T10:15:20.380Z,13.60
2023-02-11T10:18:01.007Z,13.60
2023-02-11T10:20:47.954Z,13.70
2023-02-11T10:23:31.016Z,13.90
2023-02-11T10:25:58.929Z,14.10
2023-02-11T10:28:34.843Z,14.20
2023-02-11T10:31:21.472Z,14.30
2023-02-11T10:33:59.031Z,14.50
2023-02-11T10:36:31.172Z,14.80
2023-02-11T10:39:22.616Z,15.00
2023-02-11T10:42:18.769Z,15.10
2023-02-11T10:45:02.338Z,15.30
2023-02-11T10:47:36.810Z,15.30
2023-02-11T10:50:22.899Z,15.30
2023-02-11T10:52:49.785Z,15.20
2023-02-11T10:55:26.012Z,15.20
2023-02-11T10:57:56.722Z,15.30
2023-02-11T11:00:39.025Z,15.20
2023-02-11T11:03:21.648Z,15.30
2023-02-11T11:05:57.295Z,15.30
2023-02-11T11:08:48.596Z,15.40
2023-02-11T11:11:20.879Z,15.50
2023-02-11T11:13:53.808Z,15.60
2023-02-11T11:16:23.997Z,15.60
2023-02-11T11:18:53.555Z,15.70
2023-02-11T11:21:28.797Z,15.90
2023-02-11T11:23:59.187Z,16.00
2023-02-11T11:26:29.513Z,16.00
2023-02-11T11:29:02.354Z,16.00
2023-02-11T11:31:35.641Z,16.10
2023-02-11T11:34:20.777Z,16.20
2023-02-11T11:36:48.144Z,16.30
2023-02-11T11:39:22.788Z,16.40
2023-02-11T11:41:52.650Z,16.30
2023-02-11T11:44:29.176Z,16.20
2023-02-11T11:47:12.749Z,16.10
2023-02-11T11:50:03.393Z,16.20
2023-02-11T11:52:36.526Z,16.50
2023-02-11T11:55:17.025Z,16.70
2023-02-11T11:57:44.070Z,16.80
2023-02-11T12:00:17.464Z,16.90
2023-02-11T12:03:06.028Z,16.90
2023-02-11T12:05:45.132Z,16.80
2023-02-11T12:08:41.384Z,16.70
2023-02-11T12:11:29.976Z,16.60
2023-02-11T12:14:06.180Z,16.70
2023-02-11T12:16:36.004Z,16.80
2023-02-11T12:19:33.861Z,16.80
2023-02-11T12:22:10.968Z,16.60
2023-02-11T12:25:15.336Z,16.40
2023-02-11T12:28:20.087Z,16.10
2023-02-11T12:31:13.109Z,16.00
2023-02-11T12:34:14.080Z,16.20
2023-02-11T12:37:07.902Z,16.50
2023-02-11T12:39:45.418Z,16.70
2023-02-11T12:42:56.230Z,16.60
2023-02-11T12:46:04.427Z,16.50
2023-02-11T12:48:52.777Z,16.60
2023-02-11T12:51:40.871Z,16.60
2023-02-11T12:54:10.976Z,16.70
2023-02-11T12:57:02.369Z,16.70
2023-02-11T12:59:29.054Z,16.70
2023-02-11T13:01:56.970Z,16.70
2023-02-11T13:04:35.414Z,16.70
2023-02-11T13:07:37.253Z,16.70
2023-02-11T13:10:21.548Z,16.80
2023-02-11T13:13:10.217Z,17.00
2023-02-11T13:15:37.436Z,17.00
2023-02-11T13:18:36.988Z,16.90
2023-02-11T13:21:16.324Z,16.70
2023-02-11T13:24:07.944Z,16.70
2023-02-11T13:26:46.438Z,16.60
2023-02-11T13:29:34.044Z,16.60
2023-02-11T13:32:08.942Z,16.60
2023-02-11T13:34:42.014Z,16.70
2023-02-11T13:37:26.858Z,16.90
2023-02-11T13:40:01.199Z,16.80
2023-02-11T13:42:29.753Z,16.90
2023-02-11T13:44:57.142Z,17.00
2023-02-11T13:47:31.270Z,17.10
2023-02-11T13:50:00.002Z,17.20
2023-02-11T13:52:31.639Z,17.20
2023-02-11T13:55:21.925Z,17.10
2023-02-11T13:58:07.085Z,17.00
2023-02-11T14:00:33.775Z,17.00
2023-02-11T14:03:31.146Z,17.00
2023-02-11T14:06:28.720Z,16.90
2023-02-11T14:09:13.552Z,17.00
2023-02-11T14:11:40.811Z,17.10
2023-02-11T14:14:23.835Z,17.10
2023-02-11T14:17:02.373Z,17.10
2023-02-11T14:19:37.423Z,17.20
2023-02-11T14:22:06.261Z,17.20
2023-02-11T14:24:33.000Z,17.20
2023-02-11T14:27:20.750Z,17.10
2023-02-11T14:29:56.223Z,17.00
2023-02-11T14:32:42.648Z,16.90
2023-02-11T14:35:28.312Z,16.90
2023-02-11T14:38:07.428Z,16.80
2023-02-11T14:41:02.202Z,16.60
2023-02-11T14:43:36.017Z,16.40
2023-02-11T14:46:03.317Z,16.40
2023-02-11T14:48:39.005Z,16.30
2023-02-11T14:51:12.582Z,16.20
2023-02-11T14:53:45.137Z,16.10
2023-02-11T14:56:31.601Z,16.10
2023-02-11T14:58:58.945Z,16.10
2023-02-11T15:01:40.520Z,16.20
2023-02-11T15:04:24.214Z,16.10
2023-02-11T15:06:51.388Z,16.00
2023-02-11T15:09:25.617Z,16.00
2023-02-11T15:11:53.259Z,16.00
2023-02-11T15:14:25.509Z,16.00
2023-02-11T15:16:54.742Z,15.90
2023-02-11T15:19:26.723Z,15.90
2023-02-11T15:21:54.083Z,15.90
2023-02-11T15:24:24.338Z,15.80
2023-02-11T15:27:20.926Z,15.80
2023-02-11T15:29:50.582Z,15.70
2023-02-11T15:32:18.606Z,15.70
2023-02-11T15:34:47.244Z,15.60
2023-02-11T15:37:23.077Z,15.50
2023-02-11T15:39:49.832Z,15.50
2023-02-11T15:42:20.612Z,15.40
2023-02-11T15:44:54.293Z,15.40
2023-02-11T15:47:29.468Z,15.20
2023-02-11T15:49:56.237Z,15.10
2023-02-11T15:52:26.497Z,15.10
2023-02-11T15:54:56.005Z,14.90
2023-02-11T15:57:23.172Z,14.90
2023-02-11T15:59:53.460Z,14.90
2023-02-11T16:02:31.013Z,14.80
2023-02-11T16:05:00.712Z,14.80
2023-02-11T16:07:50.387Z,14.80
2023-02-11T16:10:19.960Z,14.80
2023-02-11T16:12:53.999Z,14.70
2023-02-11T16:15:42.179Z,14.70
2023-02-11T16:18:21.983Z,14.60
2023-02-11T16:20:51.894Z,14.50
2023-02-11T16:23:38.409Z,14.50
2023-02-11T16:26:22.252Z,14.50
2023-02-11T16:28:49.391Z,14.40
2023-02-11T16:31:16.468Z,14.20
2023-02-11T16:33:43.300Z,14.20
2023-02-11T16:36:14.676Z,14.10
2023-02-11T16:38:41.425Z,14.10
2023-02-11T16:41:11.687Z,14.00
2023-02-11T16:43:39.866Z,14.00
2023-02-11T16:46:06.767Z,13.90
2023-02-11T16:48:33.847Z,13.80
2023-02-11T16:51:00.888Z,13.80
2023-02-11T16:53:27.685Z,13.80
2023-02-11T16:55:54.998Z,13.70
2023-02-11T16:58:21.750Z,13.70
2023-02-11T17:00:48.740Z,13.70
2023-02-11T17:03:23.129Z,13.70
2023-02-11T17:05:55.663Z,13.70
2023-02-11T17:08:22.680Z,13.70
2023-02-11T17:10:49.777Z,13.70
2023-02-11T17:13:16.892Z,13.70
2023-02-11T17:15:43.614Z,13.70
2023-02-11T17:18:14.221Z,13.70
2023-02-11T17:20:41.632Z,13.70
2023-02-11T17:23:08.701Z,13.70
2023-02-11T17:25:37.317Z,13.60
2023-02-11T17:28:08.925Z,13.60
2023-02-11T17:30:35.999Z,13.50
2023-02-11T17:33:02.915Z,13.50
2023-02-11T17:35:29.690Z,13.50
2023-02-11T17:37:58.189Z,13.40
2023-02-11T17:40:24.961Z,13.30
2023-02-11T17:42:51.691Z,13.30
2023-02-11T17:45:21.101Z,13.20
2023-02-11T17:47:49.453Z,13.10
2023-02-11T17:50:16.307Z,13.30
2023-02-11T17:52:43.194Z,13.20
2023-02-11T17:55:09.987Z,13.10
2023-02-11T17:57:37.037Z,13.10
2023-02-11T18:00:07.739Z,13.10
2023-02-11T18:02:39.508Z,13.10
2023-02-11T18:05:07.110Z,13.10
2023-02-11T18:07:34.001Z,13.00
2023-02-11T18:10:00.810Z,13.00
2023-02-11T18:12:27.661Z,13.00
2023-02-11T18:14:57.558Z,13.00
2023-02-11T18:17:25.700Z,13.00
2023-02-11T18:19:56.117Z,13.00
2023-02-11T18:22:24.425Z,13.00
2023-02-11T18:24:53.024Z,13.00
2023-02-11T18:27:23.534Z,12.90
2023-02-11T18:29:50.556Z,12.90
2023-02-11T18:32:17.292Z,12.90
2023-02-11T18:34:44.072Z,12.90
2023-02-11T18:37:13.220Z,12.90
2023-02-11T18:39:40.526Z,13.00
2023-02-11T18:42:07.331Z,12.90
2023-02-11T18:44:34.134Z,13.00
2023-02-11T18:47:01.124Z,13.00
2023-02-11T18:49:27.873Z,13.00
2023-02-11T18:51:54.914Z,13.00
2023-02-11T18:54:21.694Z,13.00
2023-02-11T18:56:48.444Z,13.00
2023-02-11T18:59:15.212Z,13.00
2023-02-11T19:01:46.644Z,13.00
2023-02-11T19:04:18.848Z,13.00
2023-02-11T19:06:49.410Z,13.00
2023-02-11T19:09:19.526Z,13.00
2023-02-11T19:11:54.152Z,13.10
2023-02-11T19:14:25.582Z,13.00
2023-02-11T19:16:55.584Z,12.80
2023-02-11T19:19:23.786Z,12.90
2023-02-11T19:21:50.853Z,13.00
2023-02-11T19:24:21.314Z,13.10
2023-02-11T19:26:49.651Z,13.10
2023-02-11T19:29:17.181Z,13.10
2023-02-11T19:31:44.819Z,13.10
2023-02-11T19:34:14.117Z,13.20
2023-02-11T19:36:41.489Z,13.10
2023-02-11T19:39:08.992Z,13.20
2023-02-11T19:41:36.536Z,13.20
2023-02-11T19:44:05.457Z,13.20
2023-02-11T19:46:36.317Z,13.30
2023-02-11T19:49:05.250Z,13.30
2023-02-11T19:51:38.966Z,13.30
2023-02-11T19:54:06.860Z,13.30
2023-02-11T19:56:34.481Z,13.30
2023-02-11T19:59:02.797Z,13.30
2023-02-11T20:01:29.621Z,13.30
2023-02-11T20:03:57.518Z,13.30
2023-02-11T20:06:26.669Z,13.30
2023-02-11T20:08:57.985Z,13.30
2023-02-11T20:11:25.863Z,13.30
2023-02-11T20:13:52.625Z,13.30
2023-02-11T20:16:21.943Z,13.20
2023-02-11T20:18:49.925Z,13.20
2023-02-11T20:21:20.332Z,13.20
2023-02-11T20:23:47.666Z,13.20
2023-02-11T20:26:20.782Z,13.20
2023-02-11T20:28:48.908Z,13.20
2023-02-11T20:31:16.910Z,13.20
2023-02-11T20:33:45.172Z,13.30
2023-02-11T20:36:18.876Z,13.30
2023-02-11T20:38:46.034Z,13.30
2023-02-11T20:41:15.560Z,13.30
2023-02-11T20:43:47.284Z,13.30
2023-02-11T20:46:16.616Z,13.30
2023-02-11T20:48:43.948Z,13.40
2023-02-11T20:51:14.932Z,13.40
2023-02-11T20:53:44.023Z,13.40
2023-02-11T20:56:12.582Z,13.30
2023-02-11T20:58:39.948Z,13.30
2023-02-11T21:01:22.662Z,13.30
2023-02-11T21:03:52.984Z,13.40
2023-02-11T21:06:20.669Z,13.30
2023-02-11T21:08:47.784Z,13.30
2023-02-11T21:11:15.150Z,13.30
2023-02-11T21:13:43.286Z,13.30
2023-02-11T21:16:14.726Z,13.30
2023-02-11T21:18:42.035Z,13.30
2023-02-11T21:21:09.259Z,13.20
2023-02-11T21:23:36.047Z,13.20
2023-02-11T21:26:02.793Z,13.20
2023-02-11T21:28:29.601Z,13.20
2023-02-11T21:30:57.556Z,13.30
2023-02-11T21:33:27.054Z,13.30
2023-02-11T21:35:58.262Z,13.30
2023-02-11T21:38:26.167Z,13.30
2023-02-11T21:40:53.689Z,13.30
2023-02-11T21:43:20.589Z,13.30
2023-02-11T21:45:50.179Z,13.30
2023-02-11T21:48:17.969Z,13.30
2023-02-11T21:50:47.112Z,13.30
2023-02-11T21:53:14.636Z,13.30
2023-02-11T21:55:42.597Z,13.30
2023-02-11T21:58:11.020Z,13.20
2023-02-11T22:00:38.495Z,13.20
2023-02-11T22:03:05.960Z,13.20
2023-02-11T22:05:32.904Z,13.20
2023-02-11T22:07:59.661Z,13.20
2023-02-11T22:10:26.412Z,13.10
2023-02-11T22:12:53.180Z,13.10
2023-02-11T22:15:19.966Z,13.10
2023-02-11T22:17:46.701Z,13.20
2023-02-11T22:20:13.529Z,13.20
2023-02-11T22:22:40.283Z,13.20
2023-02-11T22:25:07.454Z,13.30
2023-02-11T22:27:34.254Z,13.30
2023-02-11T22:30:01.025Z,13.30
2023-02-11T22:32:27.770Z,13.20
2023-02-11T22:34:54.493Z,13.20
2023-02-11T22:37:21.229Z,13.20
2023-02-11T22:39:48.021Z,13.20
2023-02-11T22:42:14.845Z,13.20
2023-02-11T22:44:41.579Z,13.20
2023-02-11T22:47:08.386Z,13.20
2023-02-11T22:49:35.641Z,13.20
2023-02-11T22:52:02.464Z,13.10
2023-02-11T22:54:29.182Z,13.10
2023-02-11T22:56:55.893Z,13.10
2023-02-11T22:59:22.598Z,13.10
2023-02-11T23:01:49.699Z,13.10
2023-02-11T23:04:19.172Z,13.10
2023-02-11T23:06:47.582Z,13.10
2023-02-11T23:09:14.450Z,13.10
2023-02-11T23:11:41.559Z,13.20
2023-02-11T23:14:10.069Z,13.20
2023-02-11T23:16:36.843Z,13.20
2023-02-11T23:19:07.821Z,13.20
2023-02-11T23:21:37.220Z,13.10
2023-02-11T23:24:15.640Z,13.10
2023-02-11T23:26:43.171Z,13.10
2023-02-11T23:29:10.500Z,13.00
2023-02-11T23:31:40.727Z,13.00
2023-02-11T23:34:08.356Z,13.00
2023-02-11T23:36:35.424Z,13.00
2023-02-11T23:39:02.572Z,13.00
2023-02-11T23:41:29.449Z,13.00
2023-02-11T23:43:57.802Z,13.00
2023-02-11T23:46:26.166Z,13.00
2023-02-11T23:48:53.295Z,13.00
2023-02-11T23:51:20.599Z,13.10
2023-02-11T23:53:49.170Z,13.00
2023-02-11T23:56:22.984Z,13.00
2023-02-11T23:58:51.785Z,13.00
